Hollis, Illinois
Current Conditions -  °F | °C
As of 8:54 AM on Tuesday 21 Oct 2014 (Local Time) from KPIA Reporting Station
Clear Clear  
Wind Chill:   Ceiling: Unl
Heat Index:   Visibility: 10mi
Dew Point:   Wind: 5mph
Humidity: 74%   Direction: 20°NNE
Pressure: 30.16"   Gusts: NA
Location:  40.6465°N, 89.6859°W
Report Text: KPIA 211354Z 02004KT 10SM CLR 09/05 A3016 RMK AO2 SLP215 T00940050
Loading
Personal Weather Stations






























Interactive Weather Map
Tropical Storm Tracking
New forecast layout! Learn more

10-Day Weather Forecast

Advertisements
Track Severe Weather on mobile